createdAt,value
2023-04-30T00:01:01.171Z,53.21
2023-04-30T00:03:32.904Z,53.65
2023-04-30T00:06:04.749Z,54.39
2023-04-30T00:08:39.459Z,53.88
2023-04-30T00:11:11.028Z,54.29
2023-04-30T00:13:43.506Z,52.78
2023-04-30T00:16:15.226Z,52.63
2023-04-30T00:18:46.825Z,53.73
2023-04-30T00:21:18.425Z,54.33
2023-04-30T00:23:50.173Z,53.45
2023-04-30T00:26:21.777Z,53.95
2023-04-30T00:28:53.358Z,54.13
2023-04-30T00:31:24.970Z,54.52
2023-04-30T00:33:56.784Z,55.04
2023-04-30T00:36:28.438Z,53.92
2023-04-30T00:39:00.245Z,53.48
2023-04-30T00:41:33.230Z,53.20
2023-04-30T00:44:05.016Z,53.31
2023-04-30T00:46:36.717Z,53.68
2023-04-30T00:49:11.428Z,54.52
2023-04-30T00:51:43.945Z,54.28
2023-04-30T00:54:15.718Z,54.27
2023-04-30T00:56:47.653Z,54.08
2023-04-30T00:59:19.236Z,53.70
2023-04-30T01:01:51.229Z,54.53
2023-04-30T01:04:22.941Z,54.41
2023-04-30T01:06:57.088Z,54.42
2023-04-30T01:09:30.090Z,54.04
2023-04-30T01:12:38.176Z,54.53
2023-04-30T01:15:15.382Z,55.65
2023-04-30T01:18:12.761Z,56.00
2023-04-30T01:20:55.029Z,56.51
2023-04-30T01:23:34.081Z,55.33
2023-04-30T01:26:21.357Z,55.17
2023-04-30T01:28:53.472Z,57.12
2023-04-30T01:31:28.022Z,56.84
2023-04-30T01:33:59.625Z,55.80
2023-04-30T01:37:13.119Z,57.26
2023-04-30T01:40:24.712Z,55.85
2023-04-30T01:43:12.472Z,56.55
2023-04-30T01:46:18.288Z,56.54
2023-04-30T01:48:59.175Z,57.65
2023-04-30T01:51:42.410Z,57.76
2023-04-30T01:54:43.125Z,57.50
2023-04-30T01:57:38.855Z,56.83
2023-04-30T02:00:19.120Z,58.13
2023-04-30T02:02:50.859Z,56.46
2023-04-30T02:05:22.760Z,56.56
2023-04-30T02:07:54.894Z,57.75
2023-04-30T02:10:27.862Z,56.92
2023-04-30T02:12:59.554Z,56.20
2023-04-30T02:15:31.307Z,56.71
2023-04-30T02:18:02.958Z,56.76
2023-04-30T02:20:34.518Z,57.43
2023-04-30T02:23:06.114Z,57.16
2023-04-30T02:25:38.689Z,58.39
2023-04-30T02:28:10.249Z,57.47
2023-04-30T02:30:41.997Z,56.97
2023-04-30T02:33:13.853Z,57.13
2023-04-30T02:35:46.953Z,57.66
2023-04-30T02:38:18.496Z,57.14
2023-04-30T02:40:50.064Z,58.53
2023-04-30T02:43:21.748Z,57.74
2023-04-30T02:45:53.441Z,58.41
2023-04-30T02:48:25.030Z,57.87
2023-04-30T02:50:56.613Z,58.05
2023-04-30T02:53:28.153Z,57.37
2023-04-30T02:56:00.778Z,57.68
2023-04-30T02:58:32.379Z,56.48
2023-04-30T03:01:06.331Z,56.76
2023-04-30T03:03:37.993Z,56.49
2023-04-30T03:06:09.610Z,56.74
2023-04-30T03:08:41.203Z,56.25
2023-04-30T03:11:12.841Z,57.25
2023-04-30T03:13:45.540Z,55.98
2023-04-30T03:16:19.480Z,57.14
2023-04-30T03:18:51.210Z,57.14
2023-04-30T03:21:22.897Z,57.65
2023-04-30T03:23:54.450Z,57.06
2023-04-30T03:26:26.118Z,57.47
2023-04-30T03:28:57.657Z,56.59
2023-04-30T03:31:29.339Z,56.01
2023-04-30T03:34:00.976Z,56.20
2023-04-30T03:36:36.624Z,57.05
2023-04-30T03:39:10.203Z,56.65
2023-04-30T03:41:42.037Z,57.08
2023-04-30T03:44:16.042Z,57.43
2023-04-30T03:46:49.410Z,56.60
2023-04-30T03:49:21.143Z,56.60
2023-04-30T03:51:52.753Z,55.78
2023-04-30T03:54:24.404Z,56.18
2023-04-30T03:56:56.203Z,56.05
2023-04-30T03:59:27.776Z,56.39
2023-04-30T04:02:01.784Z,57.38
2023-04-30T04:04:34.112Z,56.61
2023-04-30T04:07:08.010Z,55.42
2023-04-30T04:09:40.924Z,54.69
2023-04-30T04:12:12.492Z,55.52
2023-04-30T04:14:44.189Z,55.12
2023-04-30T04:17:15.753Z,54.56
2023-04-30T04:19:47.315Z,55.79
2023-04-30T04:22:20.182Z,56.32
2023-04-30T04:24:52.110Z,56.24
2023-04-30T04:27:23.858Z,55.71
2023-04-30T04:29:55.732Z,56.52
2023-04-30T04:32:28.760Z,55.94
2023-04-30T04:35:00.484Z,56.02
2023-04-30T04:37:32.055Z,54.83
2023-04-30T04:40:05.262Z,54.50
2023-04-30T04:42:38.325Z,55.02
2023-04-30T04:45:11.144Z,55.45
2023-04-30T04:47:42.828Z,56.23
2023-04-30T04:50:14.469Z,55.97
2023-04-30T04:52:46.108Z,55.71
2023-04-30T04:55:17.744Z,54.61
2023-04-30T04:57:49.307Z,55.18
2023-04-30T05:00:23.121Z,54.76
2023-04-30T05:02:55.357Z,55.15
2023-04-30T05:05:30.118Z,55.41
2023-04-30T05:08:01.861Z,54.49
2023-04-30T05:10:34.956Z,54.48
2023-04-30T05:13:06.541Z,55.10
2023-04-30T05:15:38.640Z,54.62
2023-04-30T05:18:20.912Z,54.40
2023-04-30T05:20:52.511Z,56.18
2023-04-30T05:23:24.068Z,55.65
2023-04-30T05:25:55.701Z,55.17
2023-04-30T05:28:27.328Z,55.29
2023-04-30T05:30:58.956Z,54.54
2023-04-30T05:33:30.636Z,53.99
2023-04-30T05:36:02.237Z,54.88
2023-04-30T05:38:36.988Z,54.51
2023-04-30T05:41:12.674Z,54.18
2023-04-30T05:43:44.260Z,54.03
2023-04-30T05:46:15.940Z,53.44
2023-04-30T05:48:48.303Z,54.09
2023-04-30T05:51:19.866Z,54.13
2023-04-30T05:53:53.793Z,55.49
2023-04-30T05:56:25.731Z,53.90
2023-04-30T05:58:57.295Z,55.30
2023-04-30T06:01:29.378Z,53.97
2023-04-30T06:04:01.365Z,54.77
2023-04-30T06:06:35.026Z,53.63
2023-04-30T06:09:06.647Z,53.36
2023-04-30T06:11:39.454Z,53.48
2023-04-30T06:14:12.079Z,54.53
2023-04-30T06:16:45.482Z,53.85
2023-04-30T06:19:17.060Z,52.99
2023-04-30T06:21:48.783Z,53.01
2023-04-30T06:24:20.305Z,52.89
2023-04-30T06:26:51.875Z,52.68
2023-04-30T06:29:24.467Z,53.15
2023-04-30T06:31:56.316Z,49.89
2023-04-30T06:34:31.170Z,49.72
2023-04-30T06:37:02.782Z,48.14
2023-04-30T06:39:34.351Z,48.84
2023-04-30T06:42:05.994Z,47.57
2023-04-30T06:44:42.938Z,41.47
2023-04-30T06:47:14.535Z,38.97
2023-04-30T06:49:46.115Z,37.26
2023-04-30T06:52:17.801Z,37.17
2023-04-30T06:54:52.721Z,36.21
2023-04-30T06:57:25.689Z,36.69
2023-04-30T06:59:57.476Z,37.16
2023-04-30T07:02:29.083Z,35.87
2023-04-30T07:05:00.738Z,41.16
2023-04-30T07:07:32.719Z,40.26
2023-04-30T07:10:05.055Z,39.23
2023-04-30T07:12:36.631Z,37.72
2023-04-30T07:15:08.724Z,37.66
2023-04-30T07:17:41.876Z,36.04
2023-04-30T07:20:16.893Z,34.53
2023-04-30T07:22:48.546Z,33.06
2023-04-30T07:25:20.190Z,34.01
2023-04-30T07:27:53.069Z,36.17
2023-04-30T07:30:25.325Z,35.27
2023-04-30T07:32:57.054Z,36.63
2023-04-30T07:35:28.843Z,36.26
2023-04-30T07:38:00.405Z,38.01
2023-04-30T07:40:36.202Z,36.48
2023-04-30T07:43:08.276Z,35.66
2023-04-30T07:45:40.110Z,35.58
2023-04-30T07:48:11.950Z,36.54
2023-04-30T07:50:43.839Z,35.02
2023-04-30T07:53:15.539Z,37.31
2023-04-30T07:55:47.637Z,34.97
2023-04-30T07:58:19.168Z,35.80
2023-04-30T08:00:50.935Z,34.92
2023-04-30T08:03:22.681Z,33.79
2023-04-30T08:05:54.443Z,35.82
2023-04-30T08:08:29.330Z,36.21
2023-04-30T08:11:00.989Z,35.08
2023-04-30T08:13:32.727Z,35.00
2023-04-30T08:16:04.584Z,34.23
2023-04-30T08:18:38.835Z,34.39
2023-04-30T08:21:12.597Z,36.83
2023-04-30T08:23:44.444Z,35.69
2023-04-30T08:26:16.040Z,36.98
2023-04-30T08:28:47.675Z,35.66
2023-04-30T08:31:19.301Z,35.06
2023-04-30T08:33:50.932Z,34.63
2023-04-30T08:36:22.476Z,34.38
2023-04-30T08:38:54.048Z,35.42
2023-04-30T08:41:26.999Z,35.45
2023-04-30T08:44:02.610Z,35.82
2023-04-30T08:46:35.962Z,38.48
2023-04-30T08:49:07.778Z,37.65
2023-04-30T08:51:40.011Z,37.71
2023-04-30T08:54:13.751Z,41.03
2023-04-30T08:56:46.330Z,39.34
2023-04-30T08:59:19.022Z,37.14
2023-04-30T09:01:53.645Z,36.54
2023-04-30T09:04:25.620Z,34.38
2023-04-30T09:07:03.620Z,34.13
2023-04-30T09:09:39.706Z,34.39
2023-04-30T09:12:19.529Z,34.97
2023-04-30T09:15:03.833Z,35.92
2023-04-30T09:17:36.049Z,36.45
2023-04-30T09:20:09.914Z,36.37
2023-04-30T09:22:42.672Z,37.79
2023-04-30T09:25:14.374Z,36.77
2023-04-30T09:27:48.606Z,38.22
2023-04-30T09:30:33.724Z,36.27
2023-04-30T09:33:06.437Z,37.56
2023-04-30T09:35:41.638Z,37.55
2023-04-30T09:38:33.128Z,36.88
2023-04-30T09:41:04.766Z,34.56
2023-04-30T09:43:45.435Z,35.40
2023-04-30T09:46:20.507Z,34.25
2023-04-30T09:49:02.771Z,35.35
2023-04-30T09:51:35.646Z,36.11
2023-04-30T09:54:10.419Z,33.77
2023-04-30T09:56:45.072Z,33.72
2023-04-30T09:59:21.559Z,33.93
2023-04-30T10:01:53.798Z,34.24
2023-04-30T10:04:39.719Z,37.78
2023-04-30T10:07:21.840Z,33.14
2023-04-30T10:10:10.619Z,33.76
2023-04-30T10:12:51.700Z,32.38
2023-04-30T10:15:28.843Z,32.68
2023-04-30T10:18:05.844Z,31.89
2023-04-30T10:20:40.077Z,32.70
2023-04-30T10:23:12.630Z,33.83
2023-04-30T10:25:48.660Z,33.83
2023-04-30T10:28:23.099Z,33.52
2023-04-30T10:30:55.039Z,33.80
2023-04-30T10:33:35.928Z,33.88
2023-04-30T10:36:12.731Z,35.49
2023-04-30T10:38:46.542Z,35.64
2023-04-30T10:41:20.965Z,34.78
2023-04-30T10:43:59.995Z,34.67
2023-04-30T10:46:36.909Z,34.55
2023-04-30T10:49:12.094Z,35.48
2023-04-30T10:51:51.960Z,34.35
2023-04-30T10:54:33.125Z,34.07
2023-04-30T10:57:14.096Z,35.73
2023-04-30T11:00:14.591Z,33.60
2023-04-30T11:02:48.806Z,34.87
2023-04-30T11:05:20.737Z,34.79
2023-04-30T11:07:58.227Z,34.01
2023-04-30T11:10:34.638Z,33.65
2023-04-30T11:13:07.906Z,32.39
2023-04-30T11:15:45.975Z,33.10
2023-04-30T11:18:20.751Z,33.00
2023-04-30T11:20:52.303Z,35.04
2023-04-30T11:23:38.868Z,33.94
2023-04-30T11:26:12.058Z,32.68
2023-04-30T11:28:53.225Z,33.16
2023-04-30T11:31:39.301Z,32.85
2023-04-30T11:34:12.264Z,33.58
2023-04-30T11:36:46.851Z,32.94
2023-04-30T11:39:19.523Z,32.40
2023-04-30T11:41:51.117Z,33.30
2023-04-30T11:44:31.575Z,33.60
2023-04-30T11:47:03.370Z,33.42
2023-04-30T11:49:35.227Z,31.91
2023-04-30T11:52:08.591Z,33.06
2023-04-30T11:54:40.273Z,35.60
2023-04-30T11:57:12.337Z,33.36
2023-04-30T11:59:44.110Z,35.68
2023-04-30T12:02:16.859Z,34.19
2023-04-30T12:04:48.632Z,35.20
2023-04-30T12:07:22.082Z,33.87
2023-04-30T12:09:56.330Z,34.27
2023-04-30T12:12:31.671Z,32.89
2023-04-30T12:15:12.797Z,33.55
2023-04-30T12:17:46.321Z,30.69
2023-04-30T12:20:18.835Z,30.33
2023-04-30T12:22:51.279Z,31.38
2023-04-30T12:25:23.864Z,30.70
2023-04-30T12:27:55.695Z,31.08
2023-04-30T12:30:27.750Z,31.54
2023-04-30T12:33:00.414Z,30.64
2023-04-30T12:35:32.531Z,30.19
2023-04-30T12:38:09.594Z,29.46
2023-04-30T12:40:50.620Z,29.89
2023-04-30T12:43:22.246Z,29.31
2023-04-30T12:45:55.903Z,30.25
2023-04-30T12:48:27.938Z,30.36
2023-04-30T12:51:04.122Z,29.50
2023-04-30T12:53:46.174Z,31.63
2023-04-30T12:56:18.355Z,30.55
2023-04-30T12:58:51.240Z,29.90
2023-04-30T13:01:25.398Z,28.45
2023-04-30T13:03:57.598Z,29.42
2023-04-30T13:06:29.546Z,31.27
2023-04-30T13:09:01.194Z,32.99
2023-04-30T13:11:32.741Z,30.74
2023-04-30T13:14:04.480Z,31.19
2023-04-30T13:16:40.316Z,31.10
2023-04-30T13:19:12.778Z,32.16
2023-04-30T13:21:44.364Z,31.25
2023-04-30T13:24:17.575Z,29.51
2023-04-30T13:26:49.508Z,30.52
2023-04-30T13:29:21.234Z,31.00
2023-04-30T13:31:53.160Z,31.46
2023-04-30T13:34:24.765Z,33.01
2023-04-30T13:36:56.426Z,31.80
2023-04-30T13:39:28.049Z,31.59
2023-04-30T13:41:59.640Z,31.03
2023-04-30T13:44:33.868Z,32.50
2023-04-30T13:47:07.739Z,35.45
2023-04-30T13:49:41.896Z,34.04
2023-04-30T13:52:13.482Z,34.10
2023-04-30T13:54:45.096Z,33.74
2023-04-30T13:57:16.685Z,33.37
2023-04-30T13:59:51.615Z,32.16
2023-04-30T14:02:23.226Z,32.51
2023-04-30T14:05:05.041Z,32.42
2023-04-30T14:07:39.918Z,32.81
2023-04-30T14:10:12.606Z,31.56
2023-04-30T14:12:44.199Z,32.90
2023-04-30T14:15:16.566Z,33.36
2023-04-30T14:17:48.560Z,33.01
2023-04-30T14:20:20.430Z,33.45
2023-04-30T14:22:52.450Z,34.13
2023-04-30T14:25:24.154Z,34.21
2023-04-30T14:27:55.830Z,34.52
2023-04-30T14:30:27.667Z,33.12
2023-04-30T14:32:59.238Z,33.15
2023-04-30T14:35:30.984Z,32.32
2023-04-30T14:38:02.623Z,31.08
2023-04-30T14:40:37.443Z,32.81
2023-04-30T14:43:09.058Z,33.65
2023-04-30T14:45:40.874Z,32.68
2023-04-30T14:48:12.738Z,33.65
2023-04-30T14:50:45.214Z,33.78
2023-04-30T14:53:16.950Z,33.82
2023-04-30T14:55:48.862Z,33.46
2023-04-30T14:58:21.732Z,34.72
2023-04-30T15:00:53.310Z,35.29
2023-04-30T15:03:25.229Z,34.93
2023-04-30T15:05:57.229Z,35.12
2023-04-30T15:08:28.899Z,34.49
2023-04-30T15:11:01.170Z,34.05
2023-04-30T15:13:33.316Z,32.94
2023-04-30T15:16:06.160Z,32.87
2023-04-30T15:18:38.729Z,33.27
2023-04-30T15:21:10.649Z,34.97
2023-04-30T15:23:42.555Z,34.30
2023-04-30T15:26:14.252Z,34.15
2023-04-30T15:28:45.972Z,34.61
2023-04-30T15:31:17.612Z,34.77
2023-04-30T15:33:49.265Z,34.86
2023-04-30T15:36:23.546Z,35.15
2023-04-30T15:38:55.241Z,35.02
2023-04-30T15:41:26.837Z,37.01
2023-04-30T15:43:58.536Z,34.70
2023-04-30T15:46:30.723Z,34.97
2023-04-30T15:49:02.331Z,35.78
2023-04-30T15:51:35.222Z,35.59
2023-04-30T15:54:07.483Z,35.35
2023-04-30T15:56:39.718Z,36.62
2023-04-30T15:59:19.691Z,36.80
2023-04-30T16:01:51.536Z,37.52
2023-04-30T16:04:25.187Z,36.55
2023-04-30T16:06:57.260Z,37.32
2023-04-30T16:09:29.869Z,36.57
2023-04-30T16:12:01.440Z,36.87
2023-04-30T16:14:33.159Z,36.68
2023-04-30T16:17:04.746Z,36.48
2023-04-30T16:19:39.446Z,36.52
2023-04-30T16:22:14.259Z,37.20
2023-04-30T16:24:45.777Z,37.12
2023-04-30T16:27:20.344Z,37.70
2023-04-30T16:29:51.877Z,37.55
2023-04-30T16:32:23.509Z,37.19
2023-04-30T16:37:26.663Z,37.93
2023-04-30T16:39:59.180Z,38.66
2023-04-30T16:42:34.519Z,38.04
2023-04-30T16:45:06.979Z,38.13
2023-04-30T16:47:38.993Z,38.43
2023-04-30T16:50:11.213Z,37.99
2023-04-30T16:52:43.014Z,38.39
2023-04-30T16:55:14.598Z,39.21
2023-04-30T16:57:56.558Z,39.12
2023-04-30T17:00:28.184Z,38.91
2023-04-30T17:02:59.956Z,39.07
2023-04-30T17:05:31.913Z,39.45
2023-04-30T17:08:04.149Z,39.46
2023-04-30T17:10:35.986Z,39.65
2023-04-30T17:13:07.647Z,39.38
2023-04-30T17:15:40.393Z,39.98
2023-04-30T17:18:12.527Z,39.32
2023-04-30T17:20:46.389Z,39.94
2023-04-30T17:23:18.273Z,39.29
2023-04-30T17:25:49.813Z,39.83
2023-04-30T17:28:21.870Z,39.37
2023-04-30T17:30:54.846Z,39.09
2023-04-30T17:33:26.705Z,39.57
2023-04-30T17:36:00.985Z,39.95
2023-04-30T17:38:32.565Z,40.34
2023-04-30T17:41:07.224Z,39.48
2023-04-30T17:43:39.167Z,39.63
2023-04-30T17:46:12.835Z,39.27
2023-04-30T17:48:44.598Z,39.73
2023-04-30T17:51:16.359Z,40.61
2023-04-30T17:53:48.013Z,39.95
2023-04-30T17:56:23.299Z,41.38
2023-04-30T17:58:55.953Z,39.74
2023-04-30T18:01:27.794Z,40.09
2023-04-30T18:04:10.269Z,40.85
2023-04-30T18:06:42.032Z,40.59
2023-04-30T18:09:15.067Z,41.18
2023-04-30T18:11:46.948Z,40.88
2023-04-30T18:14:18.820Z,41.36
2023-04-30T18:16:50.976Z,41.27
2023-04-30T18:19:25.496Z,41.03
2023-04-30T18:22:00.587Z,40.53
2023-04-30T18:24:37.273Z,41.08
2023-04-30T18:27:09.380Z,42.16
2023-04-30T18:29:41.953Z,41.37
2023-04-30T18:32:13.576Z,41.01
2023-04-30T18:34:45.208Z,41.94
2023-04-30T18:37:17.936Z,41.83
2023-04-30T18:39:51.439Z,40.91
2023-04-30T18:42:27.100Z,41.55
2023-04-30T18:44:59.889Z,42.68
2023-04-30T18:47:31.781Z,41.72
2023-04-30T18:50:04.141Z,42.17
2023-04-30T18:52:36.685Z,41.77
2023-04-30T18:55:13.932Z,40.79
2023-04-30T18:57:45.786Z,42.08
2023-04-30T19:00:17.837Z,40.82
2023-04-30T19:02:49.474Z,41.78
2023-04-30T19:05:21.491Z,41.90
2023-04-30T19:07:53.340Z,42.18
2023-04-30T19:10:25.100Z,41.58
2023-04-30T19:12:56.851Z,41.24
2023-04-30T19:15:31.631Z,41.84
2023-04-30T19:18:03.479Z,42.43
2023-04-30T19:20:35.219Z,41.20
2023-04-30T19:23:07.944Z,41.22
2023-04-30T19:25:40.222Z,41.52
2023-04-30T19:28:12.133Z,41.55
2023-04-30T19:30:44.013Z,41.81
2023-04-30T19:33:15.735Z,42.30
2023-04-30T19:35:55.138Z,41.99
2023-04-30T19:38:27.081Z,41.82
2023-04-30T19:41:00.691Z,42.16
2023-04-30T19:43:35.248Z,42.78
2023-04-30T19:46:07.538Z,42.18
2023-04-30T19:48:39.202Z,42.08
2023-04-30T19:51:10.928Z,41.64
2023-04-30T19:53:42.550Z,42.40
2023-04-30T19:56:14.145Z,42.45
2023-04-30T19:58:48.783Z,42.44
2023-04-30T20:01:20.476Z,42.40
2023-04-30T20:03:52.312Z,42.60
2023-04-30T20:06:23.960Z,41.72
2023-04-30T20:08:59.438Z,42.42
2023-04-30T20:11:31.321Z,42.29
2023-04-30T20:14:04.493Z,41.78
2023-04-30T20:16:36.158Z,41.93
2023-04-30T20:19:07.850Z,42.41
2023-04-30T20:21:39.751Z,43.38
2023-04-30T20:24:11.843Z,43.14
2023-04-30T20:26:46.427Z,42.63
2023-04-30T20:29:20.560Z,42.83
2023-04-30T20:31:52.404Z,42.86
2023-04-30T20:34:24.171Z,43.53
2023-04-30T20:36:55.782Z,42.99
2023-04-30T20:39:27.326Z,43.14
2023-04-30T20:42:00.259Z,42.73
2023-04-30T20:44:31.897Z,42.74
2023-04-30T20:47:05.544Z,43.05
2023-04-30T20:49:37.532Z,42.35
2023-04-30T20:52:12.094Z,43.01
2023-04-30T20:54:43.906Z,43.38
2023-04-30T20:57:15.624Z,43.45
2023-04-30T20:59:47.170Z,43.37
2023-04-30T21:02:21.994Z,43.12
2023-04-30T21:04:53.713Z,43.20
2023-04-30T21:07:25.858Z,42.91
2023-04-30T21:09:58.952Z,43.60
2023-04-30T21:12:31.455Z,43.39
2023-04-30T21:15:03.522Z,43.75
2023-04-30T21:17:35.151Z,43.57
2023-04-30T21:20:07.949Z,43.57
2023-04-30T21:22:39.671Z,43.26
2023-04-30T21:25:12.119Z,43.42
2023-04-30T21:27:43.745Z,43.84
2023-04-30T21:30:17.118Z,44.73
2023-04-30T21:32:49.003Z,45.21
2023-04-30T21:35:20.767Z,43.81
2023-04-30T21:37:52.677Z,43.92
2023-04-30T21:40:24.507Z,44.00
2023-04-30T21:42:56.159Z,43.83
2023-04-30T21:45:27.694Z,43.87
2023-04-30T21:47:59.591Z,43.81
2023-04-30T21:50:34.330Z,43.75
2023-04-30T21:53:06.226Z,43.60
2023-04-30T21:55:37.775Z,43.69
2023-04-30T21:58:09.376Z,43.74
2023-04-30T22:00:41.005Z,43.53
2023-04-30T22:03:15.518Z,44.00
2023-04-30T22:05:49.093Z,43.10
2023-04-30T22:08:33.768Z,43.50
2023-04-30T22:11:05.808Z,44.55
2023-04-30T22:13:40.532Z,44.62
2023-04-30T22:16:15.161Z,44.34
2023-04-30T22:18:50.489Z,43.43
2023-04-30T22:21:24.769Z,44.25
2023-04-30T22:23:59.846Z,43.97
2023-04-30T22:26:31.726Z,43.59
2023-04-30T22:29:03.280Z,44.34
2023-04-30T22:31:34.988Z,43.96
2023-04-30T22:34:10.316Z,43.89
2023-04-30T22:36:42.224Z,44.50
2023-04-30T22:39:13.850Z,44.69
2023-04-30T22:41:46.481Z,44.21
2023-04-30T22:44:18.605Z,44.16
2023-04-30T22:46:50.364Z,44.35
2023-04-30T22:49:31.301Z,45.15
2023-04-30T22:52:04.469Z,44.44
2023-04-30T22:54:36.159Z,44.78
2023-04-30T22:57:07.738Z,44.62
2023-04-30T22:59:39.454Z,44.54
2023-04-30T23:02:11.154Z,44.88
2023-04-30T23:04:42.891Z,45.10
2023-04-30T23:07:14.517Z,44.92
2023-04-30T23:09:46.062Z,44.55
2023-04-30T23:12:17.719Z,44.70
2023-04-30T23:14:49.362Z,44.74
2023-04-30T23:17:21.164Z,44.43
2023-04-30T23:19:52.720Z,44.35
2023-04-30T23:22:24.300Z,45.34
2023-04-30T23:24:57.224Z,45.21
2023-04-30T23:27:28.945Z,45.27
2023-04-30T23:30:00.661Z,44.75
2023-04-30T23:32:35.326Z,44.15
2023-04-30T23:35:08.551Z,44.30
2023-04-30T23:37:40.112Z,44.97
2023-04-30T23:40:12.033Z,44.52
2023-04-30T23:42:43.703Z,44.27
2023-04-30T23:45:15.417Z,43.74
2023-04-30T23:47:47.730Z,44.01
2023-04-30T23:50:19.362Z,44.45
2023-04-30T23:52:50.986Z,43.90
2023-04-30T23:55:22.605Z,44.31
2023-04-30T23:57:54.160Z,44.98
